North Lilbourn, Missouri
Current Conditions -  °F | °C
As of 5:11 AM on Sunday 23 Nov 2014 (Local Time) from KPOF Reporting Station
Overcast Overcast  
Wind Chill: 54°   Ceiling: 2300
Heat Index: 54°   Visibility: 10mi
Dew Point: 48°   Wind: 12mph
Humidity: 80%   Direction: 150°SSE
Pressure: 29.77"   Gusts: NA
Location:  36.5917°N, 89.6449°W
Report Text: KPOF 231111Z AUTO 15010KT 10SM BKN023 OVC030 12/09 A2977 RMK AO2 T01220089
Loading
Personal Weather Stations






























Interactive Weather Map New forecast layout! Learn more

10-Day Weather Forecast

Advertisements
Track Severe Weather on mobile